aviador You're here:

BIRK Decoded Metar

REYKJAVIK in ICELAND
Report Time2018-06-21 21:00:00
UTC Time2018-06-21 21:51:06
Flight Rules mvfr MVFR
Wind160° at 17 Gusting to 27 kt
W.Decomp.*RWY 19: 16.4 kt HW 4.4 kt LCW
RWY 13: 12.0 kt HW 12.0 kt RCW
RWY 24: 7.2 kt HW 15.4 kt LCW
W.Rank160° ranks 13
Current wind is above 160° avg. (8.8)
Visibility9000 m
Phenomena:Light Rain
Clouds:Broken 018 Hf
Overcast 025 Hf
Expected CloudBase > 1,200 ft AGL from Temp-Dew spread
Ceiling1,800 ft
Temp10°C (ISA -5)
Dew Point07°C (82% RH)
AAT3.2°C
QNH1015 hPa
Density Alt-282 ft
Elevation200 ft
Report Wrong Elevation
Raw Report
METAR BIRK 212100Z 16017G27KT 9000 -RA BKN018 OVC025 10/07 Q1015=

Extra information for BIRK:More info

Metar Taf Metar & Taf Last 4 Metars F.Rules Stats Wind Profile Meteogram Temp Stats Airport Information Weather charts Add Link Nearby VenuesMetar ALERT Operation Metar Decoded Social comments